createdAt,value
2019-05-02T00:01:40.155Z,11.63
2019-05-02T00:04:12.465Z,11.93
2019-05-02T00:06:45.462Z,10.60
2019-05-02T00:09:16.203Z,15.00
2019-05-02T00:11:58.254Z,10.97
2019-05-02T00:14:19.807Z,13.53
2019-05-02T00:16:50.578Z,12.70
2019-05-02T00:19:21.320Z,14.33
2019-05-02T00:21:52.074Z,12.20
2019-05-02T00:24:22.691Z,14.07
2019-05-02T00:26:56.060Z,12.23
2019-05-02T00:29:25.786Z,11.50
2019-05-02T00:31:56.529Z,12.03
2019-05-02T00:34:27.370Z,10.77
2019-05-02T00:36:58.023Z,13.67
2019-05-02T00:39:29.209Z,13.33
2019-05-02T00:42:12.104Z,16.07
2019-05-02T00:44:35.895Z,18.30
2019-05-02T00:47:14.949Z,14.07
2019-05-02T00:49:47.518Z,12.20
2019-05-02T00:52:18.848Z,13.63
2019-05-02T00:54:49.546Z,15.90
2019-05-02T00:57:21.754Z,14.27
2019-05-02T00:59:52.485Z,16.13
2019-05-02T01:02:40.456Z,14.87
2019-05-02T01:05:08.688Z,15.40
2019-05-02T01:07:40.247Z,18.30
2019-05-02T01:10:11.562Z,17.97
2019-05-02T01:12:44.488Z,18.03
2019-05-02T01:15:16.471Z,17.87
2019-05-02T01:17:47.115Z,15.93
2019-05-02T01:20:22.151Z,16.70
2019-05-02T01:22:52.271Z,18.50
2019-05-02T01:25:22.550Z,17.10
2019-05-02T01:28:21.107Z,17.07
2019-05-02T01:31:13.142Z,20.47
2019-05-02T01:33:55.457Z,20.03
2019-05-02T01:36:30.638Z,22.80
2019-05-02T01:39:02.950Z,16.83
2019-05-02T01:41:33.682Z,15.73
2019-05-02T01:44:04.362Z,19.33
2019-05-02T01:46:35.023Z,18.27
2019-05-02T01:49:05.878Z,15.17
2019-05-02T01:51:37.034Z,21.53
2019-05-02T01:54:09.988Z,16.97
2019-05-02T01:56:40.625Z,16.77
2019-05-02T01:59:11.310Z,15.37
2019-05-02T02:01:42.295Z,18.53
2019-05-02T02:04:16.184Z,16.03
2019-05-02T02:06:45.806Z,16.83
2019-05-02T02:09:16.470Z,17.17
2019-05-02T02:11:47.124Z,19.50
2019-05-02T02:14:18.723Z,16.50
2019-05-02T02:16:49.645Z,16.57
2019-05-02T02:19:28.861Z,18.47
2019-05-02T02:22:19.101Z,17.93
2019-05-02T02:25:08.597Z,16.70
2019-05-02T02:27:39.838Z,20.33
2019-05-02T02:30:17.706Z,18.73
2019-05-02T02:32:43.976Z,18.23
2019-05-02T02:35:14.735Z,21.73
2019-05-02T02:37:53.078Z,19.70
2019-05-02T02:40:18.819Z,20.87
2019-05-02T02:42:49.764Z,22.07
2019-05-02T02:46:09.923Z,16.73
2019-05-02T02:48:42.845Z,18.50
2019-05-02T02:51:22.021Z,19.90
2019-05-02T02:53:46.264Z,20.73
2019-05-02T02:56:16.882Z,17.93
2019-05-02T02:58:48.196Z,18.47
2019-05-02T03:01:27.173Z,18.80
2019-05-02T03:03:52.394Z,17.00
2019-05-02T03:06:23.104Z,17.13
2019-05-02T03:08:53.768Z,16.80
2019-05-02T03:11:27.153Z,17.50
2019-05-02T03:14:07.447Z,16.57
2019-05-02T03:16:46.167Z,17.83
2019-05-02T03:19:14.669Z,16.60
2019-05-02T03:21:54.638Z,16.20
2019-05-02T03:24:27.665Z,18.03
2019-05-02T03:26:58.843Z,17.13
2019-05-02T03:29:41.115Z,15.70
2019-05-02T03:32:13.468Z,19.30
2019-05-02T03:34:47.785Z,16.83
2019-05-02T03:37:10.508Z,17.03
2019-05-02T03:39:41.041Z,17.93
2019-05-02T03:42:11.747Z,16.33
2019-05-02T03:44:54.943Z,13.97
2019-05-02T03:47:15.472Z,18.40
2019-05-02T03:49:48.585Z,16.73
2019-05-02T03:52:19.170Z,16.03
2019-05-02T03:54:52.365Z,14.50
2019-05-02T03:57:32.424Z,14.67
2019-05-02T03:59:54.835Z,13.67
2019-05-02T04:02:27.667Z,13.20
2019-05-02T04:05:00.566Z,14.47
2019-05-02T04:07:39.873Z,14.17
2019-05-02T04:10:05.472Z,15.13
2019-05-02T04:12:36.110Z,13.53
2019-05-02T04:15:09.642Z,13.73
2019-05-02T04:17:40.870Z,11.97
2019-05-02T04:20:12.709Z,15.43
2019-05-02T04:22:49.103Z,16.00
2019-05-02T04:25:18.440Z,14.27
2019-05-02T04:27:50.785Z,12.97
2019-05-02T04:30:21.496Z,13.63
2019-05-02T04:32:55.878Z,14.33
2019-05-02T04:35:28.788Z,14.00
2019-05-02T04:37:59.103Z,10.93
2019-05-02T04:40:34.919Z,14.73
2019-05-02T04:43:07.342Z,11.50
2019-05-02T04:45:47.314Z,12.83
2019-05-02T04:48:08.421Z,12.67
2019-05-02T04:50:38.954Z,13.17
2019-05-02T04:53:09.609Z,13.03
2019-05-02T04:55:40.287Z,14.17
2019-05-02T04:58:10.974Z,12.30
2019-05-02T05:00:45.076Z,11.60
2019-05-02T05:03:15.818Z,13.13
2019-05-02T05:05:48.275Z,11.17
2019-05-02T05:08:26.233Z,10.97
2019-05-02T05:10:51.498Z,10.80
2019-05-02T05:13:23.933Z,12.67
2019-05-02T05:15:57.278Z,11.20
2019-05-02T05:18:27.495Z,12.13
2019-05-02T05:20:58.159Z,10.83
2019-05-02T05:23:42.265Z,11.67
2019-05-02T05:26:12.994Z,11.87
2019-05-02T05:28:44.526Z,10.93
2019-05-02T05:31:16.470Z,12.97
2019-05-02T05:33:48.157Z,11.17
2019-05-02T05:36:20.058Z,13.60
2019-05-02T05:38:51.277Z,10.87
2019-05-02T05:41:23.237Z,12.40
2019-05-02T05:43:54.019Z,9.30
2019-05-02T05:46:24.714Z,11.67
2019-05-02T05:48:55.391Z,20.43
2019-05-02T05:51:27.689Z,10.23
2019-05-02T05:54:02.775Z,9.70
2019-05-02T05:56:32.546Z,8.57
2019-05-02T05:59:03.581Z,12.07
2019-05-02T06:01:36.394Z,10.60
2019-05-02T06:04:08.907Z,11.10
2019-05-02T06:06:40.091Z,11.37
2019-05-02T06:09:13.757Z,11.87
2019-05-02T06:11:43.399Z,9.13
2019-05-02T06:14:14.026Z,8.00
2019-05-02T06:16:46.602Z,12.67
2019-05-02T06:19:19.015Z,11.20
2019-05-02T06:21:50.537Z,8.17
2019-05-02T06:24:21.175Z,9.20
2019-05-02T06:26:52.522Z,7.90
2019-05-02T06:29:23.172Z,8.50
2019-05-02T06:31:53.822Z,9.33
2019-05-02T06:34:24.625Z,7.83
2019-05-02T06:36:55.329Z,10.77
2019-05-02T06:39:27.029Z,11.43
2019-05-02T06:41:58.711Z,8.57
2019-05-02T06:44:29.559Z,8.13
2019-05-02T06:47:04.346Z,7.23
2019-05-02T06:49:32.529Z,12.03
2019-05-02T06:52:03.240Z,8.50
2019-05-02T06:54:33.923Z,10.33
2019-05-02T06:57:04.654Z,8.93
2019-05-02T06:59:35.357Z,8.10
2019-05-02T07:02:06.293Z,8.87
2019-05-02T07:04:37.032Z,8.97
2019-05-02T07:07:08.005Z,9.27
2019-05-02T07:09:41.249Z,6.73
2019-05-02T07:12:14.825Z,9.20
2019-05-02T07:14:46.283Z,6.10
2019-05-02T07:17:41.996Z,7.83
2019-05-02T07:20:13.548Z,5.77
2019-05-02T07:22:45.703Z,6.17
2019-05-02T07:25:18.823Z,8.13
2019-05-02T07:27:49.498Z,7.17
2019-05-02T07:30:21.622Z,7.80
2019-05-02T07:32:56.306Z,5.40
2019-05-02T07:35:25.881Z,7.37
2019-05-02T07:37:56.782Z,9.50
2019-05-02T07:40:30.803Z,7.80
2019-05-02T07:43:02.226Z,11.00
2019-05-02T07:45:32.927Z,8.10
2019-05-02T07:48:03.634Z,9.73
2019-05-02T07:50:34.356Z,7.43
2019-05-02T07:53:09.506Z,10.03
2019-05-02T07:55:40.686Z,9.97
2019-05-02T07:58:09.952Z,8.10
2019-05-02T08:00:41.382Z,8.57
2019-05-02T08:03:12.519Z,7.43
2019-05-02T08:05:43.201Z,6.87
2019-05-02T08:08:13.846Z,8.30
2019-05-02T08:10:44.501Z,8.77
2019-05-02T08:13:17.553Z,7.63
2019-05-02T08:15:50.789Z,7.40
2019-05-02T08:18:20.516Z,12.93
2019-05-02T08:20:55.864Z,13.97
2019-05-02T08:23:25.797Z,9.70
2019-05-02T08:25:56.717Z,11.57
2019-05-02T08:28:32.886Z,10.10
2019-05-02T08:31:03.561Z,11.40
2019-05-02T08:33:35.709Z,9.67
2019-05-02T08:36:06.543Z,8.77
2019-05-02T08:38:37.242Z,9.97
2019-05-02T08:41:08.047Z,13.77
2019-05-02T08:43:40.068Z,13.30
2019-05-02T08:46:14.579Z,13.67
2019-05-02T08:48:43.914Z,14.37
2019-05-02T08:51:14.567Z,11.03
2019-05-02T08:53:45.228Z,10.37
2019-05-02T08:56:16.532Z,9.20
2019-05-02T08:58:49.753Z,11.60
2019-05-02T09:01:34.009Z,10.07
2019-05-02T09:03:56.480Z,10.40
2019-05-02T09:06:26.709Z,10.43
2019-05-02T09:08:57.453Z,11.73
2019-05-02T09:11:28.687Z,11.50
2019-05-02T09:14:02.078Z,14.30
2019-05-02T09:16:32.860Z,14.93
2019-05-02T09:19:03.567Z,14.20
2019-05-02T09:21:35.957Z,11.90
2019-05-02T09:24:08.404Z,13.80
2019-05-02T09:26:39.316Z,15.40
2019-05-02T09:29:10.251Z,12.00
2019-05-02T09:31:45.749Z,15.13
2019-05-02T09:34:17.048Z,13.57
2019-05-02T09:36:46.026Z,17.83
2019-05-02T09:39:16.648Z,13.70
2019-05-02T09:41:47.444Z,13.03
2019-05-02T09:44:18.824Z,17.50
2019-05-02T09:46:53.049Z,11.37
2019-05-02T09:49:22.460Z,13.67
2019-05-02T09:51:59.231Z,14.90
2019-05-02T09:54:25.589Z,17.10
2019-05-02T09:56:56.262Z,11.17
2019-05-02T09:59:33.435Z,13.30
2019-05-02T10:02:06.932Z,15.60
2019-05-02T10:04:37.702Z,14.57
2019-05-02T10:07:08.520Z,11.57
2019-05-02T10:09:40.012Z,11.70
2019-05-02T10:12:12.299Z,16.37
2019-05-02T10:14:43.122Z,13.23
2019-05-02T10:17:13.774Z,10.73
2019-05-02T10:19:49.215Z,14.03
2019-05-02T10:22:16.952Z,12.77
2019-05-02T10:24:47.647Z,12.97
2019-05-02T10:27:18.264Z,11.83
2019-05-02T10:29:49.062Z,12.93
2019-05-02T10:32:19.732Z,15.00
2019-05-02T10:34:55.194Z,12.97
2019-05-02T10:37:24.002Z,11.67
2019-05-02T10:39:55.888Z,13.70
2019-05-02T10:42:26.643Z,13.73
2019-05-02T10:44:57.377Z,12.13
2019-05-02T10:47:28.015Z,14.83
2019-05-02T10:50:06.831Z,15.50
2019-05-02T10:52:37.504Z,14.23
2019-05-02T10:55:08.943Z,15.90
2019-05-02T10:57:42.092Z,13.13
2019-05-02T11:00:17.625Z,15.67
2019-05-02T11:03:11.940Z,13.57
2019-05-02T11:05:44.786Z,15.90
2019-05-02T11:08:15.514Z,14.30
2019-05-02T11:10:47.064Z,12.37
2019-05-02T11:13:36.646Z,15.70
2019-05-02T11:16:24.015Z,15.63
2019-05-02T11:19:05.112Z,12.37
2019-05-02T11:21:35.846Z,14.63
2019-05-02T11:24:12.170Z,14.17
2019-05-02T11:26:42.991Z,18.30
2019-05-02T11:29:13.767Z,14.10
2019-05-02T11:31:44.524Z,14.80
2019-05-02T11:34:15.157Z,14.37
2019-05-02T11:36:45.813Z,19.40
2019-05-02T11:39:25.713Z,14.13
2019-05-02T11:41:49.146Z,13.40
2019-05-02T11:44:19.844Z,16.07
2019-05-02T11:46:52.072Z,20.77
2019-05-02T11:49:23.668Z,13.80
2019-05-02T11:51:57.096Z,17.13
2019-05-02T11:54:27.833Z,14.63
2019-05-02T11:56:58.531Z,14.17
2019-05-02T11:59:29.360Z,14.93
2019-05-02T12:02:22.094Z,14.40
2019-05-02T12:04:55.511Z,16.60
2019-05-02T12:07:25.597Z,17.57
2019-05-02T12:09:57.204Z,15.83
2019-05-02T12:12:32.460Z,16.83
2019-05-02T12:15:02.391Z,16.27
2019-05-02T12:17:33.027Z,15.13
2019-05-02T12:20:03.795Z,14.80
2019-05-02T12:22:35.697Z,17.40
2019-05-02T12:25:07.076Z,17.67
2019-05-02T12:27:37.883Z,14.53
2019-05-02T12:30:11.664Z,17.03
2019-05-02T12:32:42.712Z,16.50
2019-05-02T12:35:13.866Z,15.87
2019-05-02T12:37:47.034Z,15.43
2019-05-02T12:40:17.311Z,16.37
2019-05-02T12:42:48.272Z,17.23
2019-05-02T12:45:18.925Z,14.07
2019-05-02T12:47:49.669Z,23.47
2019-05-02T12:50:22.488Z,17.33
2019-05-02T12:52:55.571Z,15.73
2019-05-02T12:55:25.548Z,13.97
2019-05-02T12:57:56.178Z,16.33
2019-05-02T13:00:26.956Z,16.40
2019-05-02T13:03:05.707Z,14.97
2019-05-02T13:05:36.368Z,20.03
2019-05-02T13:08:07.062Z,17.90
2019-05-02T13:11:02.053Z,15.37
2019-05-02T13:13:29.310Z,17.13
2019-05-02T13:16:01.584Z,15.73
2019-05-02T13:18:36.334Z,14.17
2019-05-02T13:21:08.200Z,16.77
2019-05-02T13:23:57.799Z,17.87
2019-05-02T13:26:28.698Z,17.20
2019-05-02T13:28:59.427Z,13.13
2019-05-02T13:31:39.158Z,13.60
2019-05-02T13:34:15.370Z,14.17
2019-05-02T13:36:48.653Z,15.90
2019-05-02T13:39:44.057Z,13.77
2019-05-02T13:42:15.190Z,14.77
2019-05-02T13:44:56.123Z,13.40
2019-05-02T13:47:27.625Z,13.27
2019-05-02T13:50:00.996Z,13.37
2019-05-02T13:52:33.200Z,14.23
2019-05-02T13:55:05.806Z,15.47
2019-05-02T13:57:42.786Z,13.43
2019-05-02T14:00:12.747Z,15.13
2019-05-02T14:02:44.594Z,13.93
2019-05-02T14:05:17.556Z,14.90
2019-05-02T14:07:55.633Z,13.53
2019-05-02T14:10:39.050Z,14.10
2019-05-02T14:13:04.075Z,12.10
2019-05-02T14:15:38.508Z,15.40
2019-05-02T14:18:12.603Z,13.17
2019-05-02T14:20:43.343Z,13.70
2019-05-02T14:23:15.367Z,15.93
2019-05-02T14:25:46.086Z,13.60
2019-05-02T14:28:17.523Z,11.77
2019-05-02T14:30:48.228Z,12.13
2019-05-02T14:33:23.219Z,10.70
2019-05-02T14:35:54.068Z,13.13
2019-05-02T14:38:24.778Z,14.20
2019-05-02T14:41:09.480Z,11.17
2019-05-02T14:43:52.542Z,12.60
2019-05-02T14:46:28.732Z,12.30
2019-05-02T14:49:00.196Z,12.37
2019-05-02T14:51:32.751Z,10.70
2019-05-02T14:54:07.984Z,13.53
2019-05-02T14:57:03.930Z,10.50
2019-05-02T14:59:34.690Z,12.13
2019-05-02T15:02:08.469Z,11.60
2019-05-02T15:04:44.579Z,10.63
2019-05-02T15:07:12.960Z,11.10
2019-05-02T15:09:44.182Z,10.53
2019-05-02T15:12:18.872Z,11.17
2019-05-02T15:14:49.260Z,11.50
2019-05-02T15:17:22.713Z,10.87
2019-05-02T15:19:56.124Z,12.60
2019-05-02T15:22:27.710Z,11.07
2019-05-02T15:24:59.406Z,12.23
2019-05-02T15:27:40.204Z,12.00
2019-05-02T15:30:06.698Z,14.87
2019-05-02T15:32:51.973Z,10.63
2019-05-02T15:36:05.764Z,11.60
2019-05-02T15:38:32.356Z,9.53
2019-05-02T15:41:05.057Z,10.33
2019-05-02T15:43:39.199Z,10.60
2019-05-02T15:46:08.082Z,11.03
2019-05-02T15:48:39.137Z,11.67
2019-05-02T15:51:09.832Z,13.13
2019-05-02T15:53:56.689Z,11.50
2019-05-02T15:56:24.270Z,11.53
2019-05-02T15:58:58.081Z,10.33
2019-05-02T16:05:02.351Z,11.07
2019-05-02T16:07:32.630Z,9.63
2019-05-02T16:10:06.328Z,11.60
2019-05-02T16:12:38.721Z,11.33
2019-05-02T16:15:21.411Z,10.70
2019-05-02T16:17:47.216Z,14.80
2019-05-02T16:20:27.363Z,12.17
2019-05-02T16:22:58.209Z,11.50
2019-05-02T16:25:29.087Z,10.50
2019-05-02T16:28:02.699Z,12.40
2019-05-02T16:30:32.362Z,12.97
2019-05-02T16:33:03.061Z,13.43
2019-05-02T16:35:34.861Z,13.10
2019-05-02T16:38:05.651Z,15.13
2019-05-02T16:40:36.481Z,11.63
2019-05-02T16:43:07.389Z,12.03
2019-05-02T16:45:38.290Z,14.57
2019-05-02T16:48:11.980Z,15.47
2019-05-02T16:50:44.983Z,27.27
2019-05-02T16:53:17.275Z,15.07
2019-05-02T16:55:47.893Z,17.53
2019-05-02T16:58:18.747Z,13.43
2019-05-02T17:00:49.457Z,12.47
2019-05-02T17:03:24.724Z,12.43
2019-05-02T17:05:54.517Z,15.20
2019-05-02T17:08:38.472Z,14.27
2019-05-02T17:11:19.757Z,14.00
2019-05-02T17:13:52.655Z,12.97
2019-05-02T17:16:24.706Z,17.73
2019-05-02T17:18:56.678Z,26.77
2019-05-02T17:21:33.744Z,33.27
2019-05-02T17:24:02.476Z,34.80
2019-05-02T17:26:33.400Z,39.63
2019-05-02T17:29:04.916Z,73.93
2019-05-02T17:31:35.671Z,27.77
2019-05-02T17:34:07.230Z,52.07
2019-05-02T17:36:38.644Z,53.57
2019-05-02T17:39:10.085Z,45.40
2019-05-02T17:41:50.067Z,35.67
2019-05-02T17:44:24.641Z,90.57
2019-05-02T17:47:04.430Z,80.30
2019-05-02T17:49:36.859Z,62.90
2019-05-02T17:52:23.988Z,50.53
2019-05-02T17:54:52.839Z,46.90
2019-05-02T17:57:24.017Z,24.53
2019-05-02T17:59:54.679Z,33.43
2019-05-02T18:02:25.909Z,21.87
2019-05-02T18:04:56.642Z,16.57
2019-05-02T18:07:31.814Z,27.03
2019-05-02T18:10:00.256Z,21.00
2019-05-02T18:12:32.450Z,22.60
2019-05-02T18:15:03.681Z,16.47
2019-05-02T18:17:34.665Z,16.83
2019-05-02T18:20:06.290Z,15.27
2019-05-02T18:22:39.859Z,15.47
2019-05-02T18:25:11.596Z,14.43
2019-05-02T18:27:42.774Z,15.83
2019-05-02T18:30:24.996Z,14.77
2019-05-02T18:32:57.898Z,17.90
2019-05-02T18:35:28.164Z,14.23
2019-05-02T18:37:58.841Z,19.03
2019-05-02T18:40:32.057Z,15.67
2019-05-02T18:43:05.487Z,15.83
2019-05-02T18:45:37.488Z,20.03
2019-05-02T18:48:09.051Z,14.93
2019-05-02T18:50:46.948Z,18.10
2019-05-02T18:53:18.582Z,17.90
2019-05-02T18:55:48.777Z,16.10
2019-05-02T18:58:22.414Z,14.53
2019-05-02T19:00:53.818Z,16.37
2019-05-02T19:03:25.591Z,16.37
2019-05-02T19:05:57.310Z,14.83
2019-05-02T19:08:33.690Z,15.27
2019-05-02T19:11:10.169Z,13.90
2019-05-02T19:13:37.593Z,14.50
2019-05-02T19:16:07.977Z,17.43
2019-05-02T19:18:39.705Z,13.40
2019-05-02T19:21:12.542Z,14.47
2019-05-02T19:23:43.575Z,15.67
2019-05-02T19:26:15.412Z,16.07
2019-05-02T19:29:15.640Z,14.40
2019-05-02T19:31:46.568Z,13.00
2019-05-02T19:34:22.803Z,14.23
2019-05-02T19:36:49.897Z,15.87
2019-05-02T19:39:24.228Z,17.03
2019-05-02T19:41:54.706Z,14.77
2019-05-02T19:44:29.093Z,18.00
2019-05-02T19:46:58.483Z,16.63
2019-05-02T19:49:29.913Z,18.10
2019-05-02T19:52:02.608Z,19.73
2019-05-02T19:54:39.449Z,16.73
2019-05-02T19:57:06.049Z,18.00
2019-05-02T19:59:37.787Z,20.83
2019-05-02T20:02:09.270Z,17.07
2019-05-02T20:04:42.808Z,18.17
2019-05-02T20:07:13.530Z,18.97
2019-05-02T20:09:47.200Z,22.10
2019-05-02T20:12:16.936Z,17.47
2019-05-02T20:14:48.062Z,21.63
2019-05-02T20:17:20.011Z,21.10
2019-05-02T20:19:57.777Z,20.67
2019-05-02T20:22:26.904Z,16.30
2019-05-02T20:25:00.576Z,20.30
2019-05-02T20:27:32.777Z,17.97
2019-05-02T20:30:03.303Z,21.40
2019-05-02T20:32:34.169Z,16.23
2019-05-02T20:35:05.085Z,23.03
2019-05-02T20:37:36.139Z,82.73
2019-05-02T20:40:07.317Z,104.80
2019-05-02T20:42:38.630Z,59.83
2019-05-02T20:45:11.554Z,28.50
2019-05-02T20:47:42.760Z,50.13
2019-05-02T20:50:13.547Z,33.30
2019-05-02T20:52:44.358Z,32.03
2019-05-02T20:55:15.029Z,28.80
2019-05-02T20:57:45.903Z,34.97
2019-05-02T21:00:26.299Z,24.33
2019-05-02T21:02:57.146Z,23.27
2019-05-02T21:05:34.589Z,26.77
2019-05-02T21:08:19.123Z,19.90
2019-05-02T21:10:52.275Z,22.43
2019-05-02T21:13:23.805Z,26.57
2019-05-02T21:15:54.588Z,23.23
2019-05-02T21:18:26.273Z,23.57
2019-05-02T21:20:56.951Z,23.87
2019-05-02T21:23:27.619Z,25.57
2019-05-02T21:25:58.370Z,21.03
2019-05-02T21:28:29.163Z,26.57
2019-05-02T21:30:59.966Z,22.30
2019-05-02T21:33:42.804Z,21.70
2019-05-02T21:36:13.771Z,25.13
2019-05-02T21:38:44.598Z,22.77
2019-05-02T21:41:16.284Z,22.53
2019-05-02T21:43:46.977Z,21.27
2019-05-02T21:46:17.697Z,22.97
2019-05-02T21:48:48.463Z,23.20
2019-05-02T21:51:36.628Z,23.87
2019-05-02T21:54:22.540Z,21.60
2019-05-02T21:56:59.843Z,21.13
2019-05-02T21:59:30.554Z,21.43
2019-05-02T22:02:02.494Z,21.43
2019-05-02T22:04:33.222Z,21.97
2019-05-02T22:07:04.352Z,21.70
2019-05-02T22:09:35.601Z,20.10
2019-05-02T22:12:06.388Z,12.00
2019-05-02T22:14:37.148Z,10.30
2019-05-02T22:17:07.882Z,10.40
2019-05-02T22:19:38.692Z,8.70
2019-05-02T22:22:09.540Z,7.03
2019-05-02T22:24:42.217Z,8.73
2019-05-02T22:27:15.497Z,8.10
2019-05-02T22:29:47.376Z,8.83
2019-05-02T22:32:18.151Z,11.07
2019-05-02T22:34:48.880Z,7.30
2019-05-02T22:37:22.055Z,9.53
2019-05-02T22:39:57.230Z,8.03
2019-05-02T22:42:27.965Z,8.00
2019-05-02T22:45:01.638Z,7.87
2019-05-02T22:47:32.286Z,8.20
2019-05-02T22:50:02.951Z,6.93
2019-05-02T22:52:34.291Z,7.80
2019-05-02T22:55:05.405Z,7.43
2019-05-02T22:57:36.159Z,8.87
2019-05-02T23:00:08.287Z,7.37
2019-05-02T23:02:39.063Z,7.87
2019-05-02T23:05:09.952Z,7.43
2019-05-02T23:07:41.900Z,6.60
2019-05-02T23:10:12.835Z,6.83
2019-05-02T23:12:44.024Z,7.03
2019-05-02T23:15:14.879Z,5.80
2019-05-02T23:17:46.026Z,10.53
2019-05-02T23:20:16.734Z,5.80
2019-05-02T23:22:47.916Z,6.73
2019-05-02T23:25:35.780Z,7.27
2019-05-02T23:28:14.660Z,7.97
2019-05-02T23:30:45.859Z,5.83
2019-05-02T23:33:16.480Z,4.77
2019-05-02T23:35:47.855Z,4.73
2019-05-02T23:38:18.563Z,5.20
2019-05-02T23:40:49.563Z,5.20
2019-05-02T23:43:21.856Z,3.50
2019-05-02T23:45:52.700Z,4.80
2019-05-02T23:48:23.513Z,7.53
2019-05-02T23:50:54.333Z,4.50
2019-05-02T23:53:25.076Z,4.40
2019-05-02T23:56:03.637Z,4.97
2019-05-02T23:58:34.633Z,5.50
